Kezdőlap
METAR-TAF:

METAR-TAF

Repülőterek :

Roseau, Dominikai Közösség

földrajzi szélesség: 15-32N, földrajzi hosszúság: 061-24W, magasság: 5 m

Jelenlegi meteorológiai megfigyelések

A jelentés 7 órával és 11 perccel ezelõtt készült, 20:00 UTC
Déli szél 1 kt
Hőmérséklet 33°C
Páratartalom 53%
Légköri nyomás 1013 hPa
Látótávolság 10 km, vagy több
Kevés felhő 2200 lábon

METAR: TDCF 122000Z 17001KT 9999 FEW022 33/22 Q1013

Idő: 23:11 (03:11 UTC)


TAF: hiányzik

Meteorológiai megfigyelések és előrejelzések több, mint 4000 repülőtéren (METAR és TAF jelentéseket).

A térképen piros és sárga pontok jelzik az elérhető meteorológiai állomásokat.

Mozgassa az egeret a pont fölött, hogy megjelenjen az állomás neve.

Azután kattintson az időjárási megfigyelések és előrejelzések megtekintéséhez.

A térkép megváltoztatása: kattintson a fekete keresztel jelölt zöld gombra ráközelítéshez, a vonallal jelölt zöld gombra távolításhoz, vagy a zöld nyilakra a szomszédos térképek eléréséhez.


METAR-TAF: